sensor_id;sensor_type;location;lat;lon;timestamp;P1;durP1;ratioP1;P2;durP2;ratioP2
5121;SDS011;2563;52.242;7.956;2023-11-18T00:01:31;32.27;;;13.60;;
5121;SDS011;2563;52.242;7.956;2023-11-18T00:04:00;38.03;;;14.17;;
5121;SDS011;2563;52.242;7.956;2023-11-18T00:06:25;30.47;;;12.60;;
5121;SDS011;2563;52.242;7.956;2023-11-18T00:08:51;32.00;;;12.90;;
5121;SDS011;2563;52.242;7.956;2023-11-18T00:11:16;36.40;;;14.00;;
5121;SDS011;2563;52.242;7.956;2023-11-18T00:13:42;32.83;;;12.30;;
5121;SDS011;2563;52.242;7.956;2023-11-18T00:16:08;35.40;;;12.70;;
5121;SDS011;2563;52.242;7.956;2023-11-18T00:18:38;43.33;;;14.70;;
5121;SDS011;2563;52.242;7.956;2023-11-18T00:21:06;32.07;;;12.97;;
5121;SDS011;2563;52.242;7.956;2023-11-18T00:23:32;34.77;;;14.10;;
5121;SDS011;2563;52.242;7.956;2023-11-18T00:25:58;29.57;;;12.47;;
5121;SDS011;2563;52.242;7.956;2023-11-18T00:28:23;34.13;;;13.20;;
5121;SDS011;2563;52.242;7.956;2023-11-18T00:30:49;27.23;;;11.87;;
5121;SDS011;2563;52.242;7.956;2023-11-18T00:33:14;32.07;;;12.87;;
5121;SDS011;2563;52.242;7.956;2023-11-18T00:35:40;30.67;;;12.67;;
5121;SDS011;2563;52.242;7.956;2023-11-18T00:38:06;40.70;;;15.13;;
5121;SDS011;2563;52.242;7.956;2023-11-18T00:40:31;36.70;;;13.50;;
5121;SDS011;2563;52.242;7.956;2023-11-18T00:42:57;28.50;;;12.70;;
5121;SDS011;2563;52.242;7.956;2023-11-18T00:45:22;36.60;;;13.83;;
5121;SDS011;2563;52.242;7.956;2023-11-18T00:47:48;38.30;;;14.57;;
5121;SDS011;2563;52.242;7.956;2023-11-18T00:50:13;34.47;;;13.20;;
5121;SDS011;2563;52.242;7.956;2023-11-18T00:52:39;33.97;;;12.17;;
5121;SDS011;2563;52.242;7.956;2023-11-18T00:55:07;42.00;;;14.50;;
5121;SDS011;2563;52.242;7.956;2023-11-18T00:57:33;37.33;;;14.27;;
5121;SDS011;2563;52.242;7.956;2023-11-18T00:59:59;36.53;;;12.30;;
5121;SDS011;2563;52.242;7.956;2023-11-18T01:02:24;35.10;;;12.67;;
5121;SDS011;2563;52.242;7.956;2023-11-18T01:04:50;40.17;;;13.87;;
5121;SDS011;2563;52.242;7.956;2023-11-18T01:07:15;37.33;;;14.23;;
5121;SDS011;2563;52.242;7.956;2023-11-18T01:09:41;33.20;;;13.67;;
5121;SDS011;2563;52.242;7.956;2023-11-18T01:12:06;33.90;;;13.37;;
5121;SDS011;2563;52.242;7.956;2023-11-18T01:14:38;34.83;;;11.93;;
5121;SDS011;2563;52.242;7.956;2023-11-18T01:17:07;49.87;;;13.97;;
5121;SDS011;2563;52.242;7.956;2023-11-18T01:19:34;38.37;;;13.50;;
5121;SDS011;2563;52.242;7.956;2023-11-18T01:22:00;32.70;;;12.00;;
5121;SDS011;2563;52.242;7.956;2023-11-18T01:24:25;38.20;;;13.77;;
5121;SDS011;2563;52.242;7.956;2023-11-18T01:26:51;28.87;;;12.53;;
5121;SDS011;2563;52.242;7.956;2023-11-18T01:29:16;34.33;;;12.87;;
5121;SDS011;2563;52.242;7.956;2023-11-18T01:31:42;30.83;;;11.97;;
5121;SDS011;2563;52.242;7.956;2023-11-18T01:34:07;28.13;;;11.27;;
5121;SDS011;2563;52.242;7.956;2023-11-18T01:36:33;37.47;;;13.33;;
5121;SDS011;2563;52.242;7.956;2023-11-18T01:38:58;31.20;;;11.60;;
5121;SDS011;2563;52.242;7.956;2023-11-18T01:41:24;36.50;;;13.23;;
5121;SDS011;2563;52.242;7.956;2023-11-18T01:43:50;38.60;;;12.07;;
5121;SDS011;2563;52.242;7.956;2023-11-18T01:46:15;32.87;;;12.17;;
5121;SDS011;2563;52.242;7.956;2023-11-18T01:48:41;36.23;;;12.20;;
5121;SDS011;2563;52.242;7.956;2023-11-18T01:51:07;29.07;;;11.63;;
5121;SDS011;2563;52.242;7.956;2023-11-18T01:53:37;28.47;;;11.47;;
5121;SDS011;2563;52.242;7.956;2023-11-18T01:56:05;28.30;;;11.53;;
5121;SDS011;2563;52.242;7.956;2023-11-18T01:58:32;28.17;;;10.90;;
5121;SDS011;2563;52.242;7.956;2023-11-18T02:00:58;30.90;;;9.77;;
5121;SDS011;2563;52.242;7.956;2023-11-18T02:03:23;24.70;;;10.13;;
5121;SDS011;2563;52.242;7.956;2023-11-18T02:05:50;26.97;;;10.43;;
5121;SDS011;2563;52.242;7.956;2023-11-18T02:08:16;33.10;;;10.67;;
5121;SDS011;2563;52.242;7.956;2023-11-18T02:10:48;27.30;;;10.17;;
5121;SDS011;2563;52.242;7.956;2023-11-18T02:13:21;27.23;;;11.60;;
5121;SDS011;2563;52.242;7.956;2023-11-18T02:15:50;29.10;;;10.17;;
5121;SDS011;2563;52.242;7.956;2023-11-18T02:18:18;30.03;;;10.20;;
5121;SDS011;2563;52.242;7.956;2023-11-18T02:20:44;27.00;;;10.40;;
5121;SDS011;2563;52.242;7.956;2023-11-18T02:23:12;32.33;;;12.23;;
5121;SDS011;2563;52.242;7.956;2023-11-18T02:25:42;26.63;;;10.67;;
5121;SDS011;2563;52.242;7.956;2023-11-18T02:28:10;27.37;;;11.27;;
5121;SDS011;2563;52.242;7.956;2023-11-18T02:30:35;24.17;;;9.83;;
5121;SDS011;2563;52.242;7.956;2023-11-18T02:35:38;29.83;;;11.33;;
5121;SDS011;2563;52.242;7.956;2023-11-18T02:38:13;22.97;;;10.03;;
5121;SDS011;2563;52.242;7.956;2023-11-18T02:40:41;28.87;;;11.67;;
5121;SDS011;2563;52.242;7.956;2023-11-18T02:43:08;29.00;;;10.63;;
5121;SDS011;2563;52.242;7.956;2023-11-18T02:45:35;29.60;;;11.30;;
5121;SDS011;2563;52.242;7.956;2023-11-18T02:48:01;28.07;;;11.00;;
5121;SDS011;2563;52.242;7.956;2023-11-18T02:50:27;29.27;;;10.37;;
5121;SDS011;2563;52.242;7.956;2023-11-18T02:52:54;30.20;;;9.73;;
5121;SDS011;2563;52.242;7.956;2023-11-18T02:55:20;22.20;;;9.30;;
5121;SDS011;2563;52.242;7.956;2023-11-18T02:57:49;28.20;;;10.53;;
5121;SDS011;2563;52.242;7.956;2023-11-18T03:00:16;25.50;;;9.70;;
5121;SDS011;2563;52.242;7.956;2023-11-18T03:02:48;29.97;;;11.17;;
5121;SDS011;2563;52.242;7.956;2023-11-18T03:05:16;21.20;;;8.87;;
5121;SDS011;2563;52.242;7.956;2023-11-18T03:07:51;22.47;;;9.53;;
5121;SDS011;2563;52.242;7.956;2023-11-18T03:10:19;28.90;;;12.70;;
5121;SDS011;2563;52.242;7.956;2023-11-18T03:15:14;23.60;;;9.23;;
5121;SDS011;2563;52.242;7.956;2023-11-18T03:17:43;23.00;;;9.33;;
5121;SDS011;2563;52.242;7.956;2023-11-18T03:20:09;26.47;;;9.60;;
5121;SDS011;2563;52.242;7.956;2023-11-18T03:22:36;20.93;;;9.30;;
5121;SDS011;2563;52.242;7.956;2023-11-18T03:25:02;22.60;;;9.23;;
5121;SDS011;2563;52.242;7.956;2023-11-18T03:27:27;22.50;;;8.60;;
5121;SDS011;2563;52.242;7.956;2023-11-18T03:29:53;24.43;;;9.10;;
5121;SDS011;2563;52.242;7.956;2023-11-18T03:32:18;22.77;;;8.90;;
5121;SDS011;2563;52.242;7.956;2023-11-18T03:34:43;24.33;;;9.90;;
5121;SDS011;2563;52.242;7.956;2023-11-18T03:37:09;23.67;;;9.60;;
5121;SDS011;2563;52.242;7.956;2023-11-18T03:39:38;24.33;;;9.60;;
5121;SDS011;2563;52.242;7.956;2023-11-18T03:42:03;20.07;;;8.60;;
5121;SDS011;2563;52.242;7.956;2023-11-18T03:44:28;25.57;;;10.23;;
5121;SDS011;2563;52.242;7.956;2023-11-18T03:46:54;40.37;;;10.83;;
5121;SDS011;2563;52.242;7.956;2023-11-18T03:49:20;27.70;;;9.80;;
5121;SDS011;2563;52.242;7.956;2023-11-18T03:51:46;26.80;;;10.60;;
5121;SDS011;2563;52.242;7.956;2023-11-18T03:54:11;27.30;;;10.33;;
5121;SDS011;2563;52.242;7.956;2023-11-18T03:56:37;34.17;;;10.17;;
5121;SDS011;2563;52.242;7.956;2023-11-18T03:59:03;27.43;;;10.20;;
5121;SDS011;2563;52.242;7.956;2023-11-18T04:01:29;31.67;;;10.93;;
5121;SDS011;2563;52.242;7.956;2023-11-18T04:03:55;30.50;;;10.57;;
5121;SDS011;2563;52.242;7.956;2023-11-18T04:06:21;24.07;;;9.10;;
5121;SDS011;2563;52.242;7.956;2023-11-18T04:08:47;34.70;;;10.67;;
5121;SDS011;2563;52.242;7.956;2023-11-18T04:11:13;32.43;;;9.10;;
5121;SDS011;2563;52.242;7.956;2023-11-18T04:13:43;25.30;;;9.00;;
5121;SDS011;2563;52.242;7.956;2023-11-18T04:16:12;28.53;;;10.43;;
5121;SDS011;2563;52.242;7.956;2023-11-18T04:18:41;34.17;;;10.40;;
5121;SDS011;2563;52.242;7.956;2023-11-18T04:21:10;30.40;;;10.80;;
5121;SDS011;2563;52.242;7.956;2023-11-18T04:23:39;24.57;;;9.13;;
5121;SDS011;2563;52.242;7.956;2023-11-18T04:26:06;27.60;;;9.80;;
5121;SDS011;2563;52.242;7.956;2023-11-18T04:28:32;27.83;;;9.90;;
5121;SDS011;2563;52.242;7.956;2023-11-18T04:30:58;24.73;;;9.03;;
5121;SDS011;2563;52.242;7.956;2023-11-18T04:33:24;23.40;;;10.07;;
5121;SDS011;2563;52.242;7.956;2023-11-18T04:35:50;27.90;;;10.17;;
5121;SDS011;2563;52.242;7.956;2023-11-18T04:38:16;26.17;;;10.40;;
5121;SDS011;2563;52.242;7.956;2023-11-18T04:40:42;25.73;;;9.37;;
5121;SDS011;2563;52.242;7.956;2023-11-18T04:43:11;26.07;;;10.33;;
5121;SDS011;2563;52.242;7.956;2023-11-18T04:45:36;28.80;;;10.33;;
5121;SDS011;2563;52.242;7.956;2023-11-18T04:48:02;24.90;;;9.57;;
5121;SDS011;2563;52.242;7.956;2023-11-18T04:50:29;32.10;;;9.83;;
5121;SDS011;2563;52.242;7.956;2023-11-18T04:52:55;27.87;;;10.00;;
5121;SDS011;2563;52.242;7.956;2023-11-18T04:55:21;28.50;;;8.90;;
5121;SDS011;2563;52.242;7.956;2023-11-18T04:57:46;29.80;;;9.63;;
5121;SDS011;2563;52.242;7.956;2023-11-18T05:00:12;25.63;;;10.10;;
5121;SDS011;2563;52.242;7.956;2023-11-18T05:02:41;26.67;;;9.23;;
5121;SDS011;2563;52.242;7.956;2023-11-18T05:05:07;39.33;;;10.17;;
5121;SDS011;2563;52.242;7.956;2023-11-18T05:07:33;25.97;;;8.80;;
5121;SDS011;2563;52.242;7.956;2023-11-18T05:09:59;33.73;;;12.23;;
5121;SDS011;2563;52.242;7.956;2023-11-18T05:12:25;35.83;;;11.10;;
5121;SDS011;2563;52.242;7.956;2023-11-18T05:14:51;21.90;;;9.03;;
5121;SDS011;2563;52.242;7.956;2023-11-18T05:17:16;27.57;;;9.53;;
5121;SDS011;2563;52.242;7.956;2023-11-18T05:19:42;33.73;;;10.70;;
5121;SDS011;2563;52.242;7.956;2023-11-18T05:22:08;33.50;;;11.20;;
5121;SDS011;2563;52.242;7.956;2023-11-18T05:24:34;25.57;;;8.67;;
5121;SDS011;2563;52.242;7.956;2023-11-18T05:26:59;28.10;;;9.97;;
5121;SDS011;2563;52.242;7.956;2023-11-18T05:29:28;32.73;;;10.13;;
5121;SDS011;2563;52.242;7.956;2023-11-18T05:31:53;26.33;;;9.80;;
5121;SDS011;2563;52.242;7.956;2023-11-18T05:34:22;28.10;;;10.20;;
5121;SDS011;2563;52.242;7.956;2023-11-18T05:36:47;24.40;;;10.53;;
5121;SDS011;2563;52.242;7.956;2023-11-18T05:39:16;29.03;;;10.00;;
5121;SDS011;2563;52.242;7.956;2023-11-18T05:41:41;27.23;;;10.03;;
5121;SDS011;2563;52.242;7.956;2023-11-18T05:44:10;28.77;;;11.50;;
5121;SDS011;2563;52.242;7.956;2023-11-18T05:46:42;25.57;;;9.17;;
5121;SDS011;2563;52.242;7.956;2023-11-18T05:49:08;30.10;;;10.83;;
5121;SDS011;2563;52.242;7.956;2023-11-18T05:51:34;24.07;;;9.40;;
5121;SDS011;2563;52.242;7.956;2023-11-18T05:54:00;31.20;;;10.00;;
5121;SDS011;2563;52.242;7.956;2023-11-18T05:56:26;23.73;;;8.70;;
5121;SDS011;2563;52.242;7.956;2023-11-18T05:58:51;30.10;;;9.30;;
5121;SDS011;2563;52.242;7.956;2023-11-18T06:01:20;30.80;;;10.00;;
5121;SDS011;2563;52.242;7.956;2023-11-18T06:03:46;27.17;;;10.30;;
5121;SDS011;2563;52.242;7.956;2023-11-18T06:06:12;30.90;;;11.20;;
5121;SDS011;2563;52.242;7.956;2023-11-18T06:08:39;29.53;;;10.63;;
5121;SDS011;2563;52.242;7.956;2023-11-18T06:11:06;25.20;;;9.70;;
5121;SDS011;2563;52.242;7.956;2023-11-18T06:13:53;26.97;;;9.53;;
5121;SDS011;2563;52.242;7.956;2023-11-18T06:16:19;21.60;;;8.47;;
5121;SDS011;2563;52.242;7.956;2023-11-18T06:18:46;29.73;;;10.30;;
5121;SDS011;2563;52.242;7.956;2023-11-18T06:21:16;28.53;;;10.70;;
5121;SDS011;2563;52.242;7.956;2023-11-18T06:23:44;28.60;;;9.90;;
5121;SDS011;2563;52.242;7.956;2023-11-18T06:26:10;29.53;;;10.17;;
5121;SDS011;2563;52.242;7.956;2023-11-18T06:28:40;45.33;;;11.90;;
5121;SDS011;2563;52.242;7.956;2023-11-18T06:31:06;35.80;;;11.73;;
5121;SDS011;2563;52.242;7.956;2023-11-18T06:33:40;29.17;;;10.53;;
5121;SDS011;2563;52.242;7.956;2023-11-18T06:38:39;28.17;;;9.50;;
5121;SDS011;2563;52.242;7.956;2023-11-18T06:41:05;36.80;;;10.60;;
5121;SDS011;2563;52.242;7.956;2023-11-18T06:43:36;32.93;;;10.67;;
5121;SDS011;2563;52.242;7.956;2023-11-18T06:46:21;36.33;;;11.90;;
5121;SDS011;2563;52.242;7.956;2023-11-18T06:48:51;28.50;;;11.43;;
5121;SDS011;2563;52.242;7.956;2023-11-18T06:51:22;30.20;;;11.43;;
5121;SDS011;2563;52.242;7.956;2023-11-18T06:53:56;28.80;;;9.77;;
5121;SDS011;2563;52.242;7.956;2023-11-18T06:56:25;31.50;;;11.73;;
5121;SDS011;2563;52.242;7.956;2023-11-18T06:58:51;28.40;;;10.37;;
5121;SDS011;2563;52.242;7.956;2023-11-18T07:01:17;33.70;;;12.30;;
5121;SDS011;2563;52.242;7.956;2023-11-18T07:03:47;31.10;;;10.40;;
5121;SDS011;2563;52.242;7.956;2023-11-18T07:06:17;31.73;;;10.63;;
5121;SDS011;2563;52.242;7.956;2023-11-18T07:08:47;38.23;;;11.33;;
5121;SDS011;2563;52.242;7.956;2023-11-18T07:11:14;38.43;;;11.73;;
5121;SDS011;2563;52.242;7.956;2023-11-18T07:13:40;28.57;;;10.57;;
5121;SDS011;2563;52.242;7.956;2023-11-18T07:16:06;40.77;;;12.03;;
5121;SDS011;2563;52.242;7.956;2023-11-18T07:18:34;30.00;;;10.80;;
5121;SDS011;2563;52.242;7.956;2023-11-18T07:20:59;34.90;;;11.50;;
5121;SDS011;2563;52.242;7.956;2023-11-18T07:23:25;42.00;;;11.83;;
5121;SDS011;2563;52.242;7.956;2023-11-18T07:25:51;26.67;;;10.50;;
5121;SDS011;2563;52.242;7.956;2023-11-18T07:28:16;30.13;;;12.50;;
5121;SDS011;2563;52.242;7.956;2023-11-18T07:30:42;34.47;;;12.30;;
5121;SDS011;2563;52.242;7.956;2023-11-18T07:33:12;29.50;;;11.60;;
5121;SDS011;2563;52.242;7.956;2023-11-18T07:35:42;33.73;;;11.00;;
5121;SDS011;2563;52.242;7.956;2023-11-18T07:38:07;25.70;;;10.77;;
5121;SDS011;2563;52.242;7.956;2023-11-18T07:40:36;32.30;;;10.87;;
5121;SDS011;2563;52.242;7.956;2023-11-18T07:43:03;32.50;;;11.90;;
5121;SDS011;2563;52.242;7.956;2023-11-18T07:45:34;22.97;;;10.20;;
5121;SDS011;2563;52.242;7.956;2023-11-18T07:48:03;32.10;;;11.90;;
5121;SDS011;2563;52.242;7.956;2023-11-18T07:50:32;37.37;;;10.23;;
5121;SDS011;2563;52.242;7.956;2023-11-18T07:53:01;24.83;;;9.70;;
5121;SDS011;2563;52.242;7.956;2023-11-18T07:55:27;29.83;;;10.63;;
5121;SDS011;2563;52.242;7.956;2023-11-18T07:57:53;24.73;;;9.80;;
5121;SDS011;2563;52.242;7.956;2023-11-18T08:00:19;35.57;;;11.83;;
5121;SDS011;2563;52.242;7.956;2023-11-18T08:02:44;24.47;;;10.53;;
5121;SDS011;2563;52.242;7.956;2023-11-18T08:05:09;28.17;;;10.80;;
5121;SDS011;2563;52.242;7.956;2023-11-18T08:07:39;29.73;;;11.80;;
5121;SDS011;2563;52.242;7.956;2023-11-18T08:10:05;21.80;;;9.60;;
5121;SDS011;2563;52.242;7.956;2023-11-18T08:12:31;26.70;;;10.23;;
5121;SDS011;2563;52.242;7.956;2023-11-18T08:14:57;42.90;;;17.40;;
5121;SDS011;2563;52.242;7.956;2023-11-18T08:17:24;33.37;;;10.20;;
5121;SDS011;2563;52.242;7.956;2023-11-18T08:19:50;32.37;;;11.90;;
5121;SDS011;2563;52.242;7.956;2023-11-18T08:22:17;27.17;;;9.83;;
5121;SDS011;2563;52.242;7.956;2023-11-18T08:24:43;29.60;;;10.33;;
5121;SDS011;2563;52.242;7.956;2023-11-18T08:27:09;23.83;;;11.17;;
5121;SDS011;2563;52.242;7.956;2023-11-18T08:29:36;28.70;;;11.33;;
5121;SDS011;2563;52.242;7.956;2023-11-18T08:32:03;25.33;;;10.40;;
5121;SDS011;2563;52.242;7.956;2023-11-18T08:34:28;32.87;;;10.87;;
5121;SDS011;2563;52.242;7.956;2023-11-18T08:36:54;30.37;;;11.93;;
5121;SDS011;2563;52.242;7.956;2023-11-18T08:39:19;27.90;;;10.30;;
5121;SDS011;2563;52.242;7.956;2023-11-18T08:41:45;24.50;;;10.30;;
5121;SDS011;2563;52.242;7.956;2023-11-18T08:44:11;25.10;;;9.60;;
5121;SDS011;2563;52.242;7.956;2023-11-18T08:46:38;28.00;;;10.13;;
5121;SDS011;2563;52.242;7.956;2023-11-18T08:49:04;25.30;;;11.63;;
5121;SDS011;2563;52.242;7.956;2023-11-18T08:51:36;26.37;;;10.97;;
5121;SDS011;2563;52.242;7.956;2023-11-18T08:54:09;23.00;;;9.60;;
5121;SDS011;2563;52.242;7.956;2023-11-18T08:56:50;23.27;;;9.07;;
5121;SDS011;2563;52.242;7.956;2023-11-18T08:59:17;23.83;;;8.70;;
5121;SDS011;2563;52.242;7.956;2023-11-18T09:01:49;24.33;;;9.03;;
5121;SDS011;2563;52.242;7.956;2023-11-18T09:04:19;21.73;;;9.47;;
5121;SDS011;2563;52.242;7.956;2023-11-18T09:06:45;18.93;;;9.13;;
5121;SDS011;2563;52.242;7.956;2023-11-18T09:09:11;23.90;;;8.83;;
5121;SDS011;2563;52.242;7.956;2023-11-18T09:11:38;18.27;;;8.40;;
5121;SDS011;2563;52.242;7.956;2023-11-18T09:14:06;20.40;;;8.27;;
5121;SDS011;2563;52.242;7.956;2023-11-18T09:16:33;23.90;;;9.30;;
5121;SDS011;2563;52.242;7.956;2023-11-18T09:19:04;20.30;;;9.00;;
5121;SDS011;2563;52.242;7.956;2023-11-18T09:21:31;21.17;;;9.10;;
5121;SDS011;2563;52.242;7.956;2023-11-18T09:24:00;20.80;;;8.00;;
5121;SDS011;2563;52.242;7.956;2023-11-18T09:26:27;23.30;;;8.87;;
5121;SDS011;2563;52.242;7.956;2023-11-18T09:28:55;24.83;;;9.37;;
5121;SDS011;2563;52.242;7.956;2023-11-18T09:31:20;21.53;;;9.50;;
5121;SDS011;2563;52.242;7.956;2023-11-18T09:33:46;22.33;;;8.80;;
5121;SDS011;2563;52.242;7.956;2023-11-18T09:36:17;22.53;;;10.30;;
5121;SDS011;2563;52.242;7.956;2023-11-18T09:38:43;21.00;;;8.70;;
5121;SDS011;2563;52.242;7.956;2023-11-18T09:41:11;36.70;;;9.07;;
5121;SDS011;2563;52.242;7.956;2023-11-18T09:48:49;23.40;;;9.37;;
5121;SDS011;2563;52.242;7.956;2023-11-18T09:51:25;29.10;;;10.10;;
5121;SDS011;2563;52.242;7.956;2023-11-18T09:53:55;22.33;;;9.40;;
5121;SDS011;2563;52.242;7.956;2023-11-18T09:59:37;21.10;;;7.47;;
5121;SDS011;2563;52.242;7.956;2023-11-18T10:02:09;22.17;;;9.40;;
5121;SDS011;2563;52.242;7.956;2023-11-18T10:04:36;26.73;;;9.20;;
5121;SDS011;2563;52.242;7.956;2023-11-18T10:07:04;20.17;;;7.90;;
5121;SDS011;2563;52.242;7.956;2023-11-18T10:09:32;20.40;;;8.73;;
5121;SDS011;2563;52.242;7.956;2023-11-18T10:12:04;24.43;;;8.23;;
5121;SDS011;2563;52.242;7.956;2023-11-18T10:14:35;18.13;;;8.37;;
5121;SDS011;2563;52.242;7.956;2023-11-18T10:17:05;21.93;;;9.40;;
5121;SDS011;2563;52.242;7.956;2023-11-18T10:19:50;19.80;;;7.33;;
5121;SDS011;2563;52.242;7.956;2023-11-18T10:22:25;19.00;;;7.80;;
5121;SDS011;2563;52.242;7.956;2023-11-18T10:24:52;22.03;;;8.20;;
5121;SDS011;2563;52.242;7.956;2023-11-18T10:27:19;18.80;;;8.50;;
5121;SDS011;2563;52.242;7.956;2023-11-18T10:30:04;21.40;;;8.07;;
5121;SDS011;2563;52.242;7.956;2023-11-18T10:32:30;18.53;;;7.77;;
5121;SDS011;2563;52.242;7.956;2023-11-18T10:35:00;15.97;;;7.90;;
5121;SDS011;2563;52.242;7.956;2023-11-18T10:37:26;17.93;;;7.97;;
5121;SDS011;2563;52.242;7.956;2023-11-18T10:39:55;17.37;;;7.13;;
5121;SDS011;2563;52.242;7.956;2023-11-18T10:42:22;18.13;;;7.17;;
5121;SDS011;2563;52.242;7.956;2023-11-18T10:44:55;14.33;;;6.87;;
5121;SDS011;2563;52.242;7.956;2023-11-18T10:47:27;14.63;;;7.33;;
5121;SDS011;2563;52.242;7.956;2023-11-18T10:49:54;15.90;;;7.97;;
5121;SDS011;2563;52.242;7.956;2023-11-18T11:14:24;16.60;;;7.70;;
5121;SDS011;2563;52.242;7.956;2023-11-18T11:17:00;16.00;;;7.60;;
5121;SDS011;2563;52.242;7.956;2023-11-18T11:22:21;17.10;;;8.27;;
5121;SDS011;2563;52.242;7.956;2023-11-18T11:27:59;14.60;;;6.37;;
5121;SDS011;2563;52.242;7.956;2023-11-18T11:30:43;17.00;;;6.70;;
5121;SDS011;2563;52.242;7.956;2023-11-18T11:35:37;13.90;;;7.53;;
5121;SDS011;2563;52.242;7.956;2023-11-18T11:38:11;17.00;;;7.23;;
5121;SDS011;2563;52.242;7.956;2023-11-18T11:40:38;19.70;;;7.23;;
5121;SDS011;2563;52.242;7.956;2023-11-18T11:43:07;17.40;;;6.90;;
5121;SDS011;2563;52.242;7.956;2023-11-18T11:45:40;17.50;;;7.23;;
5121;SDS011;2563;52.242;7.956;2023-11-18T11:48:08;17.03;;;7.97;;
5121;SDS011;2563;52.242;7.956;2023-11-18T11:50:48;15.07;;;7.37;;
5121;SDS011;2563;52.242;7.956;2023-11-18T11:53:20;15.87;;;7.27;;
5121;SDS011;2563;52.242;7.956;2023-11-18T11:55:52;15.83;;;7.23;;
5121;SDS011;2563;52.242;7.956;2023-11-18T11:58:31;16.30;;;6.60;;
5121;SDS011;2563;52.242;7.956;2023-11-18T12:01:15;16.50;;;6.40;;
5121;SDS011;2563;52.242;7.956;2023-11-18T12:03:48;19.23;;;7.73;;
5121;SDS011;2563;52.242;7.956;2023-11-18T12:06:20;15.03;;;6.60;;
5121;SDS011;2563;52.242;7.956;2023-11-18T12:08:54;17.07;;;7.20;;
5121;SDS011;2563;52.242;7.956;2023-11-18T12:11:21;16.30;;;7.07;;
5121;SDS011;2563;52.242;7.956;2023-11-18T12:19:38;11.40;;;5.77;;
5121;SDS011;2563;52.242;7.956;2023-11-18T12:22:19;25.40;;;7.80;;
5121;SDS011;2563;52.242;7.956;2023-11-18T12:35:23;16.37;;;6.40;;
5121;SDS011;2563;52.242;7.956;2023-11-18T12:40:23;14.93;;;7.27;;
5121;SDS011;2563;52.242;7.956;2023-11-18T12:43:02;15.77;;;6.60;;
5121;SDS011;2563;52.242;7.956;2023-11-18T12:48:30;18.13;;;6.00;;
5121;SDS011;2563;52.242;7.956;2023-11-18T12:50:57;14.77;;;6.53;;
5121;SDS011;2563;52.242;7.956;2023-11-18T12:53:24;13.53;;;6.30;;
5121;SDS011;2563;52.242;7.956;2023-11-18T12:55:50;16.70;;;6.67;;
5121;SDS011;2563;52.242;7.956;2023-11-18T12:58:17;18.50;;;5.77;;
5121;SDS011;2563;52.242;7.956;2023-11-18T13:00:43;16.23;;;7.37;;
5121;SDS011;2563;52.242;7.956;2023-11-18T13:03:11;15.60;;;6.47;;
5121;SDS011;2563;52.242;7.956;2023-11-18T13:05:40;26.77;;;6.27;;
5121;SDS011;2563;52.242;7.956;2023-11-18T13:08:06;14.17;;;5.83;;
5121;SDS011;2563;52.242;7.956;2023-11-18T13:10:32;15.67;;;7.10;;
5121;SDS011;2563;52.242;7.956;2023-11-18T13:12:57;16.87;;;6.67;;
5121;SDS011;2563;52.242;7.956;2023-11-18T13:15:25;13.03;;;6.60;;
5121;SDS011;2563;52.242;7.956;2023-11-18T13:20:23;15.70;;;6.97;;
5121;SDS011;2563;52.242;7.956;2023-11-18T13:22:51;16.70;;;6.43;;
5121;SDS011;2563;52.242;7.956;2023-11-18T13:25:17;13.63;;;6.30;;
5121;SDS011;2563;52.242;7.956;2023-11-18T13:27:42;14.20;;;7.13;;
5121;SDS011;2563;52.242;7.956;2023-11-18T13:30:08;15.70;;;7.23;;
5121;SDS011;2563;52.242;7.956;2023-11-18T13:32:40;15.93;;;5.63;;
5121;SDS011;2563;52.242;7.956;2023-11-18T13:35:07;13.90;;;6.13;;
5121;SDS011;2563;52.242;7.956;2023-11-18T13:37:33;15.60;;;6.73;;
5121;SDS011;2563;52.242;7.956;2023-11-18T13:39:58;13.87;;;5.87;;
5121;SDS011;2563;52.242;7.956;2023-11-18T13:42:25;13.10;;;6.40;;
5121;SDS011;2563;52.242;7.956;2023-11-18T13:45:02;15.83;;;6.67;;
5121;SDS011;2563;52.242;7.956;2023-11-18T13:47:33;13.43;;;6.63;;
5121;SDS011;2563;52.242;7.956;2023-11-18T13:49:58;13.13;;;6.60;;
5121;SDS011;2563;52.242;7.956;2023-11-18T13:52:24;16.47;;;7.17;;
5121;SDS011;2563;52.242;7.956;2023-11-18T13:54:50;12.20;;;6.23;;
5121;SDS011;2563;52.242;7.956;2023-11-18T13:57:20;17.00;;;7.10;;
5121;SDS011;2563;52.242;7.956;2023-11-18T13:59:48;14.93;;;5.83;;
5121;SDS011;2563;52.242;7.956;2023-11-18T14:02:14;16.27;;;6.23;;
5121;SDS011;2563;52.242;7.956;2023-11-18T14:04:41;20.13;;;6.57;;
5121;SDS011;2563;52.242;7.956;2023-11-18T14:07:09;13.50;;;6.20;;
5121;SDS011;2563;52.242;7.956;2023-11-18T14:09:37;14.33;;;6.27;;
5121;SDS011;2563;52.242;7.956;2023-11-18T14:12:09;13.07;;;6.90;;
5121;SDS011;2563;52.242;7.956;2023-11-18T14:14:34;12.90;;;5.57;;
5121;SDS011;2563;52.242;7.956;2023-11-18T14:17:00;13.37;;;6.10;;
5121;SDS011;2563;52.242;7.956;2023-11-18T14:19:26;16.03;;;6.53;;
5121;SDS011;2563;52.242;7.956;2023-11-18T14:21:52;16.40;;;6.03;;
5121;SDS011;2563;52.242;7.956;2023-11-18T14:24:18;11.40;;;5.30;;
5121;SDS011;2563;52.242;7.956;2023-11-18T14:26:44;10.43;;;5.33;;
5121;SDS011;2563;52.242;7.956;2023-11-18T14:29:10;14.93;;;5.90;;
5121;SDS011;2563;52.242;7.956;2023-11-18T14:31:38;13.27;;;5.90;;
5121;SDS011;2563;52.242;7.956;2023-11-18T14:34:04;11.70;;;5.67;;
5121;SDS011;2563;52.242;7.956;2023-11-18T14:36:30;11.87;;;5.70;;
5121;SDS011;2563;52.242;7.956;2023-11-18T14:38:55;12.00;;;5.70;;
5121;SDS011;2563;52.242;7.956;2023-11-18T14:41:23;10.47;;;5.23;;
5121;SDS011;2563;52.242;7.956;2023-11-18T14:43:51;12.57;;;5.30;;
5121;SDS011;2563;52.242;7.956;2023-11-18T14:46:17;12.17;;;4.57;;
5121;SDS011;2563;52.242;7.956;2023-11-18T14:48:43;14.93;;;6.07;;
5121;SDS011;2563;52.242;7.956;2023-11-18T14:51:09;11.07;;;4.87;;
5121;SDS011;2563;52.242;7.956;2023-11-18T14:53:35;14.07;;;4.50;;
5121;SDS011;2563;52.242;7.956;2023-11-18T14:56:01;12.20;;;4.83;;
5121;SDS011;2563;52.242;7.956;2023-11-18T14:58:27;10.60;;;4.40;;
5121;SDS011;2563;52.242;7.956;2023-11-18T15:00:52;10.57;;;5.10;;
5121;SDS011;2563;52.242;7.956;2023-11-18T15:03:21;12.63;;;5.40;;
5121;SDS011;2563;52.242;7.956;2023-11-18T15:05:47;13.10;;;5.20;;
5121;SDS011;2563;52.242;7.956;2023-11-18T15:08:13;12.13;;;4.70;;
5121;SDS011;2563;52.242;7.956;2023-11-18T15:10:39;11.90;;;4.37;;
5121;SDS011;2563;52.242;7.956;2023-11-18T15:13:07;11.73;;;5.20;;
5121;SDS011;2563;52.242;7.956;2023-11-18T15:15:37;11.37;;;4.80;;
5121;SDS011;2563;52.242;7.956;2023-11-18T15:18:06;12.47;;;5.37;;
5121;SDS011;2563;52.242;7.956;2023-11-18T15:20:34;12.10;;;4.40;;
5121;SDS011;2563;52.242;7.956;2023-11-18T15:23:01;14.80;;;4.70;;
5121;SDS011;2563;52.242;7.956;2023-11-18T15:25:29;11.27;;;4.53;;
5121;SDS011;2563;52.242;7.956;2023-11-18T15:27:55;12.70;;;4.40;;
5121;SDS011;2563;52.242;7.956;2023-11-18T15:30:21;9.73;;;4.30;;
5121;SDS011;2563;52.242;7.956;2023-11-18T15:32:49;9.17;;;3.90;;
5121;SDS011;2563;52.242;7.956;2023-11-18T15:35:14;10.53;;;3.87;;
5121;SDS011;2563;52.242;7.956;2023-11-18T15:37:41;8.57;;;3.60;;
5121;SDS011;2563;52.242;7.956;2023-11-18T15:40:08;9.40;;;4.07;;
5121;SDS011;2563;52.242;7.956;2023-11-18T15:42:39;12.60;;;3.67;;
5121;SDS011;2563;52.242;7.956;2023-11-18T15:45:15;9.90;;;4.30;;
5121;SDS011;2563;52.242;7.956;2023-11-18T15:47:42;13.80;;;3.50;;
5121;SDS011;2563;52.242;7.956;2023-11-18T15:50:09;8.90;;;3.73;;
5121;SDS011;2563;52.242;7.956;2023-11-18T15:52:47;11.83;;;4.10;;
5121;SDS011;2563;52.242;7.956;2023-11-18T15:55:14;10.30;;;2.93;;
5121;SDS011;2563;52.242;7.956;2023-11-18T15:57:46;10.33;;;4.00;;
5121;SDS011;2563;52.242;7.956;2023-11-18T16:00:17;7.93;;;2.80;;
5121;SDS011;2563;52.242;7.956;2023-11-18T16:02:45;6.80;;;2.60;;
5121;SDS011;2563;52.242;7.956;2023-11-18T16:05:13;7.30;;;2.57;;
5121;SDS011;2563;52.242;7.956;2023-11-18T16:07:40;5.67;;;2.00;;
5121;SDS011;2563;52.242;7.956;2023-11-18T16:10:06;7.87;;;2.80;;